createdAt,value
2022-08-11T00:00:39.510Z,15.26
2022-08-11T00:05:52.869Z,14.94
2022-08-11T00:11:03.225Z,14.91
2022-08-11T00:16:17.441Z,14.85
2022-08-11T00:22:02.875Z,14.87
2022-08-11T00:26:56.958Z,14.79
2022-08-11T00:32:07.678Z,14.78
2022-08-11T00:37:23.966Z,14.67
2022-08-11T00:42:50.075Z,14.81
2022-08-11T00:48:06.612Z,14.96
2022-08-11T00:53:38.576Z,14.92
2022-08-11T00:59:36.026Z,14.55
2022-08-11T01:05:43.973Z,14.52
2022-08-11T01:11:39.019Z,14.15
2022-08-11T01:18:08.747Z,14.22
2022-08-11T01:24:03.371Z,14.26
2022-08-11T01:30:04.788Z,14.15
2022-08-11T01:36:24.130Z,14.04
2022-08-11T01:42:25.029Z,14.25
2022-08-11T01:47:54.757Z,14.41
2022-08-11T01:53:24.192Z,14.22
2022-08-11T01:58:45.346Z,14.11
2022-08-11T02:04:04.865Z,14.05
2022-08-11T02:09:27.343Z,13.97
2022-08-11T02:14:53.519Z,13.96
2022-08-11T02:20:39.626Z,14.05
2022-08-11T02:26:00.882Z,13.82
2022-08-11T02:32:24.610Z,13.68
2022-08-11T02:37:29.869Z,13.69
2022-08-11T02:43:07.231Z,13.73
2022-08-11T02:48:48.814Z,13.95
2022-08-11T02:54:11.056Z,13.83
2022-08-11T02:59:48.397Z,13.77
2022-08-11T03:05:17.821Z,13.94
2022-08-11T03:10:34.212Z,14.00
2022-08-11T03:16:10.962Z,13.54
2022-08-11T03:21:24.902Z,13.44
2022-08-11T03:27:11.425Z,13.45
2022-08-11T03:32:30.593Z,13.46
2022-08-11T03:37:53.366Z,13.61
2022-08-11T03:43:15.078Z,13.51
2022-08-11T03:48:29.867Z,13.50
2022-08-11T03:53:57.777Z,13.57
2022-08-11T03:59:39.846Z,13.56
2022-08-11T04:05:31.023Z,13.55
2022-08-11T04:11:29.717Z,13.48
2022-08-11T04:16:46.513Z,13.46
2022-08-11T04:22:37.701Z,13.60
2022-08-11T04:28:50.202Z,13.80
2022-08-11T04:34:39.546Z,13.83
2022-08-11T04:40:08.173Z,13.89
2022-08-11T04:45:55.046Z,13.90
2022-08-11T04:51:44.465Z,13.94
2022-08-11T04:57:13.164Z,14.05
2022-08-11T05:02:59.446Z,14.20
2022-08-11T05:08:52.385Z,14.26
2022-08-11T05:14:51.184Z,14.31
2022-08-11T05:20:14.829Z,14.53
2022-08-11T05:26:43.289Z,14.67
2022-08-11T05:31:35.428Z,14.80
2022-08-11T05:36:50.238Z,15.03
2022-08-11T05:42:29.911Z,15.20
2022-08-11T05:47:57.101Z,15.31
2022-08-11T05:53:22.929Z,15.45
2022-08-11T05:58:41.164Z,15.66
2022-08-11T06:04:12.041Z,15.88
2022-08-11T06:09:29.070Z,16.11
2022-08-11T06:14:36.175Z,16.06
2022-08-11T06:19:48.709Z,16.12
2022-08-11T06:25:00.311Z,16.29
2022-08-11T06:30:13.888Z,16.41
2022-08-11T06:35:36.003Z,16.44
2022-08-11T06:41:08.614Z,16.82
2022-08-11T06:46:28.229Z,16.82
2022-08-11T06:51:41.686Z,16.81
2022-08-11T06:57:28.899Z,16.91
2022-08-11T07:02:38.911Z,17.13
2022-08-11T07:09:10.588Z,17.15
2022-08-11T07:14:39.929Z,17.58
2022-08-11T07:20:10.396Z,17.90
2022-08-11T07:25:37.461Z,18.09
2022-08-11T07:30:45.822Z,18.53
2022-08-11T07:35:56.234Z,18.69
2022-08-11T07:41:04.345Z,18.50
2022-08-11T07:46:30.240Z,18.44
2022-08-11T07:51:55.179Z,18.26
2022-08-11T07:57:09.095Z,18.55
2022-08-11T08:02:45.814Z,18.86
2022-08-11T08:08:09.608Z,19.03
2022-08-11T08:13:36.084Z,19.29
2022-08-11T08:18:43.724Z,19.34
2022-08-11T08:23:53.818Z,19.79
2022-08-11T08:29:25.053Z,20.02
2022-08-11T08:34:32.386Z,20.38
2022-08-11T08:39:40.609Z,20.55
2022-08-11T08:44:57.526Z,20.53
2022-08-11T08:50:08.521Z,20.60
2022-08-11T08:55:20.223Z,21.00
2022-08-11T09:00:39.356Z,21.14
2022-08-11T09:05:45.851Z,21.25
2022-08-11T09:11:14.058Z,21.34
2022-08-11T09:16:21.952Z,21.48
2022-08-11T09:21:39.765Z,21.67
2022-08-11T09:27:01.409Z,21.58
2022-08-11T09:32:09.470Z,21.50
2022-08-11T09:37:54.343Z,21.79
2022-08-11T09:43:17.986Z,21.83
2022-08-11T09:48:27.975Z,21.78
2022-08-11T09:53:41.022Z,21.91
2022-08-11T09:58:47.829Z,21.91
2022-08-11T10:04:01.835Z,21.99
2022-08-11T10:09:09.218Z,21.99
2022-08-11T10:14:35.273Z,21.81
2022-08-11T10:19:48.868Z,21.96
2022-08-11T10:25:32.911Z,22.34
2022-08-11T10:30:58.144Z,22.41
2022-08-11T10:36:16.507Z,22.46
2022-08-11T10:42:03.402Z,22.60
2022-08-11T10:47:26.213Z,22.76
2022-08-11T10:52:52.183Z,23.04
2022-08-11T10:58:15.804Z,22.87
2022-08-11T11:03:23.955Z,22.81
2022-08-11T11:08:51.459Z,22.86
2022-08-11T11:14:15.967Z,22.94
2022-08-11T11:19:27.180Z,22.83
2022-08-11T11:24:47.595Z,23.02
2022-08-11T11:30:05.195Z,22.97
2022-08-11T11:35:28.257Z,22.93
2022-08-11T11:40:37.757Z,23.07
2022-08-11T11:45:44.425Z,23.26
2022-08-11T11:50:53.738Z,23.09
2022-08-11T11:56:04.755Z,23.21
2022-08-11T12:01:20.215Z,23.14
2022-08-11T12:06:28.197Z,23.46
2022-08-11T12:11:53.755Z,23.43
2022-08-11T12:17:00.605Z,23.69
2022-08-11T12:22:24.463Z,23.82
2022-08-11T12:27:33.490Z,23.64
2022-08-11T12:32:46.223Z,23.59
2022-08-11T12:38:02.636Z,23.50
2022-08-11T12:43:38.785Z,23.40
2022-08-11T12:49:06.097Z,23.38
2022-08-11T12:54:16.538Z,23.40
2022-08-11T12:59:42.100Z,23.37
2022-08-11T13:04:56.513Z,23.42
2022-08-11T13:10:07.116Z,23.59
2022-08-11T13:15:27.175Z,23.68
2022-08-11T13:20:34.677Z,23.86
2022-08-11T13:25:41.970Z,23.96
2022-08-11T13:31:08.613Z,24.07
2022-08-11T13:36:16.936Z,24.11
2022-08-11T13:41:48.604Z,24.20
2022-08-11T13:46:59.317Z,24.21
2022-08-11T13:52:08.886Z,24.35
2022-08-11T13:58:06.721Z,24.14
2022-08-11T14:02:50.257Z,23.88
2022-08-11T14:08:02.908Z,23.69
2022-08-11T14:13:42.689Z,23.52
2022-08-11T14:19:02.098Z,23.41
2022-08-11T14:24:12.067Z,23.33
2022-08-11T14:29:23.706Z,23.40
2022-08-11T14:34:34.790Z,23.38
2022-08-11T14:39:47.674Z,23.41
2022-08-11T14:45:16.455Z,23.59
2022-08-11T14:50:28.747Z,23.50
2022-08-11T14:55:59.401Z,23.45
2022-08-11T15:01:27.237Z,23.39
2022-08-11T15:06:35.527Z,23.21
2022-08-11T15:11:59.903Z,23.07
2022-08-11T15:17:13.488Z,22.94
2022-08-11T15:22:39.452Z,22.86
2022-08-11T15:28:05.699Z,22.80
2022-08-11T15:33:33.632Z,22.76
2022-08-11T15:38:46.412Z,22.79
2022-08-11T15:44:44.590Z,22.82
2022-08-11T15:50:10.397Z,22.78
2022-08-11T15:55:21.501Z,22.66
2022-08-11T16:00:46.131Z,22.55
2022-08-11T16:05:53.451Z,22.42
2022-08-11T16:11:02.229Z,22.31
2022-08-11T16:16:19.141Z,22.28
2022-08-11T16:21:34.659Z,22.20
2022-08-11T16:27:10.891Z,22.15
2022-08-11T16:32:18.716Z,22.08
2022-08-11T16:37:43.941Z,22.02
2022-08-11T16:43:11.870Z,21.95
2022-08-11T16:48:37.573Z,21.83
2022-08-11T16:54:03.812Z,21.76
2022-08-11T16:59:20.469Z,21.58
2022-08-11T17:05:01.078Z,21.60
2022-08-11T17:10:52.527Z,21.59
2022-08-11T17:16:12.944Z,21.51
2022-08-11T17:21:24.345Z,21.47
2022-08-11T17:26:57.471Z,21.43
2022-08-11T17:32:26.050Z,21.34
2022-08-11T17:37:34.962Z,21.23
2022-08-11T17:42:59.586Z,21.14
2022-08-11T17:48:34.812Z,21.04
2022-08-11T17:54:23.930Z,20.89
2022-08-11T17:59:49.062Z,20.84
2022-08-11T18:04:58.403Z,20.77
2022-08-11T18:10:26.125Z,20.70
2022-08-11T18:15:55.574Z,20.68
2022-08-11T18:21:21.775Z,20.59
2022-08-11T18:26:47.364Z,20.24
2022-08-11T18:32:21.184Z,20.14
2022-08-11T18:37:55.023Z,19.91
2022-08-11T18:43:27.482Z,19.73
2022-08-11T18:48:53.874Z,19.80
2022-08-11T18:54:25.422Z,19.31
2022-08-11T18:59:55.779Z,19.44
2022-08-11T19:06:36.685Z,19.18
2022-08-11T19:11:07.704Z,18.82
2022-08-11T19:16:32.146Z,18.95
2022-08-11T19:21:59.503Z,18.43
2022-08-11T19:27:25.072Z,18.06
2022-08-11T19:32:50.390Z,18.40
2022-08-11T19:38:14.986Z,18.05
2022-08-11T19:43:42.477Z,18.36
2022-08-11T19:49:12.957Z,18.01
2022-08-11T19:54:37.155Z,18.33
2022-08-11T20:00:02.857Z,18.44
2022-08-11T20:05:30.106Z,18.38
2022-08-11T20:10:55.899Z,18.29
2022-08-11T20:16:22.868Z,18.44
2022-08-11T20:21:47.521Z,18.31
2022-08-11T20:27:24.021Z,18.41
2022-08-11T20:32:49.714Z,18.47
2022-08-11T20:38:14.468Z,18.41
2022-08-11T20:44:05.557Z,18.26
2022-08-11T20:49:26.916Z,18.35
2022-08-11T20:55:06.792Z,18.37
2022-08-11T21:00:40.415Z,18.33
2022-08-11T21:06:08.765Z,18.34
2022-08-11T21:11:36.727Z,18.16
2022-08-11T21:17:26.725Z,17.82
2022-08-11T21:22:59.142Z,17.95
2022-08-11T21:28:31.169Z,17.85
2022-08-11T21:33:56.517Z,17.71
2022-08-11T21:39:24.818Z,17.48
2022-08-11T21:44:49.044Z,17.40
2022-08-11T21:50:12.659Z,17.29
2022-08-11T21:55:38.267Z,17.23
2022-08-11T22:01:03.207Z,17.30
2022-08-11T22:06:28.642Z,17.40
2022-08-11T22:12:29.967Z,17.49
2022-08-11T22:17:37.298Z,17.48
2022-08-11T22:23:02.606Z,17.57
2022-08-11T22:28:29.609Z,17.57
2022-08-11T22:34:02.698Z,17.46
2022-08-11T22:39:27.129Z,17.48
2022-08-11T22:44:53.670Z,17.49
2022-08-11T22:50:19.829Z,17.54
2022-08-11T22:55:44.899Z,17.57
2022-08-11T23:01:11.173Z,17.60
2022-08-11T23:06:36.668Z,17.62
2022-08-11T23:12:07.830Z,17.68
2022-08-11T23:17:35.612Z,17.59
2022-08-11T23:22:59.669Z,17.38
2022-08-11T23:28:26.526Z,17.43
2022-08-11T23:33:56.604Z,17.51
2022-08-11T23:39:20.348Z,17.56
2022-08-11T23:44:44.008Z,17.61
2022-08-11T23:50:10.107Z,17.67
2022-08-11T23:55:36.206Z,17.70
